Stella Ada — 9V9082 — position and weather

sailwx.info

Track history (hours):
 
Tides and Currents Weather Stations Pressure Air Temp Water Temp Dewpoint Dewpoint Depression Visibility Wind Speed Wind Dir Waves Ship Positions

Stella Ada

Last reported at 2018-Apr-22 20:26 UTC. Time now 2018-Apr-26 17:22 UTC.
Position S 15°57' E 119°37'.

Length 296 m; draft 18.2 m.

Type: Cargo ship. MMSI: 566089000.

Date/timePositionNaut miles runAvg speedWind from/ knotsBaromVisibWave heightAir tempDewpointWater temp
2018-Apr-22 20:26S 15°57' E 119°37'3110.6
2018-Apr-22 17:28S 16°24' E 119°21'1611.1
2018-Apr-22 16:02S 16°38' E 119°13'511.0
2018-Apr-22 15:35S 16°42' E 119°11'111.0
2018-Apr-22 15:27S 16°44' E 119°10'510.9
2018-Apr-22 15:00S 16°48' E 119°08'611.0
2018-Apr-22 14:27S 16°53' E 119°05'511.3
2018-Apr-22 13:59S 16°58' E 119°02'511.5
2018-Apr-22 13:30S 17°03' E 118°59'1411.4
2018-Apr-22 12:15S 17°16' E 118°53'411.3
2018-Apr-22 11:55S 17°19' E 118°51'2011.8
2018-Apr-22 10:13S 17°37' E 118°41'311.9
2018-Apr-22 10:00S 17°39' E 118°40'611.7
2018-Apr-22 09:30S 17°44' E 118°37'2611.8
2018-Apr-22 07:18S 18°09' E 118°27'411.7
2018-Apr-22 06:59S 18°12' E 118°26'611.5
2018-Apr-22 06:29S 18°17' E 118°23'511.1
2018-Apr-22 06:00S 18°22' E 118°21'611.1
2018-Apr-22 05:28S 18°28' E 118°19'611.4
2018-Apr-22 04:56S 18°33' E 118°16'511.7
2018-Apr-22 04:29S 18°38' E 118°14'511.2
2018-Apr-22 04:00S 18°43' E 118°12'511.1
2018-Apr-22 03:30S 18°48' E 118°10'611.5
2018-Apr-22 02:57S 18°54' E 118°07'611.6
2018-Apr-22 02:24S 19°00' E 118°05'1511.1
2018-Apr-22 01:02S 19°14' E 117°58'011.2
2018-Apr-22 01:00S 19°14' E 117°58'1811.3
2018-Apr-21 23:25S 19°30' E 117°50'511.4
2018-Apr-21 22:57S 19°35' E 117°47'511.4
2018-Apr-21 22:29S 19°40' E 117°45'511.6
2018-Apr-21 22:00S 19°45' E 117°43'611.6
2018-Apr-21 21:29S 19°51' E 117°40'611.7
2018-Apr-21 20:57S 19°57' E 117°38'511.7
2018-Apr-21 20:30S 20°01' E 117°36'611.6
2018-Apr-21 20:00S 20°07' E 117°33'611.5
2018-Apr-21 19:30S 20°12' E 117°31'611.4
2018-Apr-21 19:00S 20°17' E 117°29'611.0
2018-Apr-21 18:30S 20°23' E 117°27'5 9.1
2018-Apr-21 18:00S 20°26' E 117°23'4 8.6
2018-Apr-21 17:30S 20°28' E 117°20'5 9.5
2018-Apr-21 17:00S 20°31' E 117°15'5 9.1
2018-Apr-21 16:29S 20°34' E 117°12'1 2.8
2018-Apr-21 16:00S 20°35' E 117°11'0 0.0
2018-Apr-21 14:35S 20°35' E 117°11'0 0.0
2018-Apr-21 14:30S 20°35' E 117°11'0 0.0
2018-Apr-21 13:11S 20°35' E 117°11'0 0.0
2018-Apr-21 12:47S 20°35' E 117°11'0 0.0
2018-Apr-21 12:29S 20°35' E 117°11'0 0.0
2018-Apr-21 11:54S 20°35' E 117°11'0 0.0
2018-Apr-21 11:29S 20°35' E 117°11'0 0.0
2018-Apr-21 10:29S 20°35' E 117°11'0 0.0
2018-Apr-21 07:53S 20°35' E 117°11'0 0.0
2018-Apr-21 07:17S 20°35' E 117°11'0 0.0
2018-Apr-21 05:53S 20°35' E 117°11'0 0.0
2018-Apr-21 03:47S 20°35' E 117°11'0 0.0
2018-Apr-21 03:17S 20°35' E 117°11'0 0.0
2018-Apr-21 02:59S 20°35' E 117°11'0 0.0
2018-Apr-21 02:29S 20°35' E 117°11'0 0.0
2018-Apr-21 01:47S 20°35' E 117°11'0 0.0
2018-Apr-21 00:35S 20°35' E 117°11'0 0.0
2018-Apr-21 00:23S 20°35' E 117°11'0 0.0
2018-Apr-20 23:59S 20°35' E 117°11'0 0.0
2018-Apr-20 02:41S 20°35' E 117°11'0 0.0
2018-Apr-20 02:29S 20°35' E 117°11'0 0.0
2018-Apr-20 00:41S 20°35' E 117°11'0 0.0
2018-Apr-20 00:29S 20°35' E 117°11'0 0.0
2018-Apr-19 23:29S 20°35' E 117°11'0 0.0
2018-Apr-19 22:53S 20°35' E 117°11'0 0.0
2018-Apr-19 22:29S 20°35' E 117°11'0 0.0
2018-Apr-19 21:59S 20°35' E 117°11'0 0.0
2018-Apr-19 21:29S 20°35' E 117°11'0 0.0
2018-Apr-19 20:47S 20°35' E 117°11'0 0.0
2018-Apr-19 19:35S 20°35' E 117°11'0 0.0
2018-Apr-19 19:11S 20°35' E 117°11'0 0.0
2018-Apr-19 17:53S 20°35' E 117°11'0 0.0
2018-Apr-19 17:29S 20°35' E 117°11'0 0.4
2018-Apr-19 17:00S 20°35' E 117°11'2 4.7
2018-Apr-19 16:30S 20°34' E 117°13'3 6.4
2018-Apr-19 16:00S 20°33' E 117°16'3 6.3
2018-Apr-19 15:30S 20°32' E 117°20'2 4.8
2018-Apr-19 15:00S 20°33' E 117°22'1 1.8
2018-Apr-19 14:29S 20°33' E 117°23'0 0.0
2018-Apr-19 13:59S 20°33' E 117°23'0 0.1
2018-Apr-19 13:29S 20°33' E 117°23'0 0.0
2018-Apr-19 12:59S 20°33' E 117°23'0 0.1
2018-Apr-19 10:35S 20°33' E 117°23'0 0.1
2018-Apr-19 10:11S 20°33' E 117°23'0 0.1
2018-Apr-19 09:11S 20°33' E 117°23'0 0.1
2018-Apr-19 08:17S 20°33' E 117°23'0 0.2
2018-Apr-19 07:53S 20°33' E 117°23'0 0.0
2018-Apr-19 07:29S 20°33' E 117°23'0 0.0
2018-Apr-19 06:35S 20°33' E 117°23'0 0.1
2018-Apr-19 06:23S 20°33' E 117°23'0 0.2
2018-Apr-19 05:53S 20°33' E 117°23'0 0.1
2018-Apr-19 04:35S 20°33' E 117°23'0 0.0
2018-Apr-19 04:23S 20°33' E 117°23'0 0.0
2018-Apr-19 03:11S 20°33' E 117°23'0 0.0
2018-Apr-19 02:59S 20°33' E 117°23'0 0.0
2018-Apr-18 23:53S 20°33' E 117°23'0 0.1
2018-Apr-18 21:05S 20°33' E 117°23'0 0.0
2018-Apr-18 19:23S 20°33' E 117°23'0 0.0
2018-Apr-18 18:53S 20°33' E 117°23'0 0.0
2018-Apr-18 18:29S 20°33' E 117°23'0 0.1
2018-Apr-18 17:29S 20°33' E 117°23'0 0.1
2018-Apr-18 16:59S 20°33' E 117°23'0 0.1
2018-Apr-18 16:29S 20°33' E 117°23'0 0.1
2018-Apr-18 14:59S 20°33' E 117°23'0 0.1
2018-Apr-18 13:53S 20°33' E 117°23'1 2.3
2018-Apr-18 13:29S 20°33' E 117°24'3 5.2
2018-Apr-18 13:00S 20°31' E 117°26'4 7.7
2018-Apr-18 12:28S 20°27' E 117°27'612.0
2018-Apr-18 11:59S 20°21' E 117°26'611.7
2018-Apr-18 11:27S 20°15' E 117°25'4 9.6
2018-Apr-18 11:00S 20°11' E 117°25'713.2
2018-Apr-18 10:28S 20°04' E 117°23'613.0
2018-Apr-18 09:59S 19°58' E 117°22'712.7
2018-Apr-18 09:28S 19°51' E 117°21'612.4
2018-Apr-18 08:59S 19°46' E 117°20'612.1
2018-Apr-18 08:29S 19°40' E 117°19'611.9
2018-Apr-18 07:59S 19°34' E 117°18'611.8
2018-Apr-18 07:28S 19°28' E 117°17'612.0
2018-Apr-18 07:00S 19°22' E 117°16'612.1
2018-Apr-18 06:30S 19°16' E 117°15'612.3
2018-Apr-18 06:00S 19°10' E 117°14'712.3
2018-Apr-18 05:28S 19°04' E 117°13'612.3
2018-Apr-18 05:00S 18°58' E 117°12'3612.9
2018-Apr-18 02:12S 18°22' E 117°08'513.1
2018-Apr-18 01:47S 18°17' E 117°07'412.7
2018-Apr-18 01:29S 18°13' E 117°07'612.5
2018-Apr-18 01:00S 18°07' E 117°06'712.4
2018-Apr-18 00:27S 18°00' E 117°05'612.6
2018-Apr-17 23:59S 17°54' E 117°03'2512.8
2018-Apr-17 22:02S 17°30' E 117°00'112.8
2018-Apr-17 21:55S 17°28' E 116°60'3512.9
2018-Apr-17 19:13S 16°54' E 116°55'312.8
2018-Apr-17 19:00S 16°51' E 116°54'1013.1
2018-Apr-17 18:15S 16°41' E 116°53'313.1
2018-Apr-17 18:00S 16°38' E 116°52'2612.7
2018-Apr-17 15:59S 16°13' E 116°48'33912.4
2018-Apr-16 12:42S 10°37' E 115°59'412.3
2018-Apr-16 12:21S 10°32' E 115°58'412.3
2018-Apr-16 12:00S 10°28' E 115°57'712.4
2018-Apr-16 11:28S 10°22' E 115°56'612.2
2018-Apr-16 10:58S 10°15' E 115°56'612.4
2018-Apr-16 10:29S 10°10' E 115°55'612.3
2018-Apr-16 10:00S 10°04' E 115°54'712.5
2018-Apr-16 09:25S 09°56' E 115°53'512.5
2018-Apr-16 09:00S 09°51' E 115°52'812.7
2018-Apr-16 08:22S 09°43' E 115°51'2613.3
2018-Apr-16 06:27S 09°18' E 115°47'612.9
2018-Apr-16 06:00S 09°12' E 115°47'612.8
2018-Apr-16 05:30S 09°06' E 115°46'713.3
2018-Apr-16 05:00S 08°59' E 115°46'714.1
2018-Apr-16 04:30S 08°52' E 115°45'711.6
2018-Apr-16 03:55S 08°45' E 115°45'511.1
2018-Apr-16 03:30S 08°41' E 115°46'714.4
2018-Apr-16 03:01S 08°34' E 115°48'714.5
2018-Apr-16 02:30S 08°27' E 115°51'814.4
2018-Apr-16 01:58S 08°20' E 115°54'714.2
2018-Apr-16 01:27S 08°13' E 115°57'613.8
2018-Apr-16 01:00S 08°08' E 115°59'714.2
2018-Apr-16 00:30S 08°01' E 116°02'1214.8
2018-Apr-15 23:42S 07°50' E 116°06'315.1
2018-Apr-15 23:29S 07°47' E 116°07'  
Track history (hours):
 
Tides and Currents Weather Stations Pressure Air Temp Water Temp Dewpoint Dewpoint Depression Visibility Wind Speed Wind Dir Waves Ship Positions

Stella Ada

Last reported at 2018-Apr-22 20:26 UTC. Time now 2018-Apr-26 17:22 UTC.
Position S 15°57' E 119°37'.

Length 296 m; draft 18.2 m.

Type: Cargo ship. MMSI: 566089000.

Date/timePositionNaut miles runAvg speedWind from/ knotsBaromVisibWave heightAir tempDewpointWater temp
2018-Apr-22 20:26S 15°57' E 119°37'3110.6
2018-Apr-22 17:28S 16°24' E 119°21'1611.1
2018-Apr-22 16:02S 16°38' E 119°13'511.0
2018-Apr-22 15:35S 16°42' E 119°11'111.0
2018-Apr-22 15:27S 16°44' E 119°10'510.9
2018-Apr-22 15:00S 16°48' E 119°08'611.0
2018-Apr-22 14:27S 16°53' E 119°05'511.3
2018-Apr-22 13:59S 16°58' E 119°02'511.5
2018-Apr-22 13:30S 17°03' E 118°59'1411.4
2018-Apr-22 12:15S 17°16' E 118°53'411.3
2018-Apr-22 11:55S 17°19' E 118°51'2011.8
2018-Apr-22 10:13S 17°37' E 118°41'311.9
2018-Apr-22 10:00S 17°39' E 118°40'611.7
2018-Apr-22 09:30S 17°44' E 118°37'2611.8
2018-Apr-22 07:18S 18°09' E 118°27'411.7
2018-Apr-22 06:59S 18°12' E 118°26'611.5
2018-Apr-22 06:29S 18°17' E 118°23'511.1
2018-Apr-22 06:00S 18°22' E 118°21'611.1
2018-Apr-22 05:28S 18°28' E 118°19'611.4
2018-Apr-22 04:56S 18°33' E 118°16'511.7
2018-Apr-22 04:29S 18°38' E 118°14'511.2
2018-Apr-22 04:00S 18°43' E 118°12'511.1
2018-Apr-22 03:30S 18°48' E 118°10'611.5
2018-Apr-22 02:57S 18°54' E 118°07'611.6
2018-Apr-22 02:24S 19°00' E 118°05'1511.1
2018-Apr-22 01:02S 19°14' E 117°58'011.2
2018-Apr-22 01:00S 19°14' E 117°58'1811.3
2018-Apr-21 23:25S 19°30' E 117°50'511.4
2018-Apr-21 22:57S 19°35' E 117°47'511.4
2018-Apr-21 22:29S 19°40' E 117°45'511.6
2018-Apr-21 22:00S 19°45' E 117°43'611.6
2018-Apr-21 21:29S 19°51' E 117°40'611.7
2018-Apr-21 20:57S 19°57' E 117°38'511.7
2018-Apr-21 20:30S 20°01' E 117°36'611.6
2018-Apr-21 20:00S 20°07' E 117°33'611.5
2018-Apr-21 19:30S 20°12' E 117°31'611.4
2018-Apr-21 19:00S 20°17' E 117°29'611.0
2018-Apr-21 18:30S 20°23' E 117°27'5 9.1
2018-Apr-21 18:00S 20°26' E 117°23'4 8.6
2018-Apr-21 17:30S 20°28' E 117°20'5 9.5
2018-Apr-21 17:00S 20°31' E 117°15'5 9.1
2018-Apr-21 16:29S 20°34' E 117°12'1 2.8
2018-Apr-21 16:00S 20°35' E 117°11'0 0.0
2018-Apr-21 14:35S 20°35' E 117°11'0 0.0
2018-Apr-21 14:30S 20°35' E 117°11'0 0.0
2018-Apr-21 13:11S 20°35' E 117°11'0 0.0
2018-Apr-21 12:47S 20°35' E 117°11'0 0.0
2018-Apr-21 12:29S 20°35' E 117°11'0 0.0
2018-Apr-21 11:54S 20°35' E 117°11'0 0.0
2018-Apr-21 11:29S 20°35' E 117°11'0 0.0
2018-Apr-21 10:29S 20°35' E 117°11'0 0.0
2018-Apr-21 07:53S 20°35' E 117°11'0 0.0
2018-Apr-21 07:17S 20°35' E 117°11'0 0.0
2018-Apr-21 05:53S 20°35' E 117°11'0 0.0
2018-Apr-21 03:47S 20°35' E 117°11'0 0.0
2018-Apr-21 03:17S 20°35' E 117°11'0 0.0
2018-Apr-21 02:59S 20°35' E 117°11'0 0.0
2018-Apr-21 02:29S 20°35' E 117°11'0 0.0
2018-Apr-21 01:47S 20°35' E 117°11'0 0.0
2018-Apr-21 00:35S 20°35' E 117°11'0 0.0
2018-Apr-21 00:23S 20°35' E 117°11'0 0.0
2018-Apr-20 23:59S 20°35' E 117°11'0 0.0
2018-Apr-20 02:41S 20°35' E 117°11'0 0.0
2018-Apr-20 02:29S 20°35' E 117°11'0 0.0
2018-Apr-20 00:41S 20°35' E 117°11'0 0.0
2018-Apr-20 00:29S 20°35' E 117°11'0 0.0
2018-Apr-19 23:29S 20°35' E 117°11'0 0.0
2018-Apr-19 22:53S 20°35' E 117°11'0 0.0
2018-Apr-19 22:29S 20°35' E 117°11'0 0.0
2018-Apr-19 21:59S 20°35' E 117°11'0 0.0
2018-Apr-19 21:29S 20°35' E 117°11'0 0.0
2018-Apr-19 20:47S 20°35' E 117°11'0 0.0
2018-Apr-19 19:35S 20°35' E 117°11'0 0.0
2018-Apr-19 19:11S 20°35' E 117°11'0 0.0
2018-Apr-19 17:53S 20°35' E 117°11'0 0.0
2018-Apr-19 17:29S 20°35' E 117°11'0 0.4
2018-Apr-19 17:00S 20°35' E 117°11'2 4.7
2018-Apr-19 16:30S 20°34' E 117°13'3 6.4
2018-Apr-19 16:00S 20°33' E 117°16'3 6.3
2018-Apr-19 15:30S 20°32' E 117°20'2 4.8
2018-Apr-19 15:00S 20°33' E 117°22'1 1.8
2018-Apr-19 14:29S 20°33' E 117°23'0 0.0
2018-Apr-19 13:59S 20°33' E 117°23'0 0.1
2018-Apr-19 13:29S 20°33' E 117°23'0 0.0
2018-Apr-19 12:59S 20°33' E 117°23'0 0.1
2018-Apr-19 10:35S 20°33' E 117°23'0 0.1
2018-Apr-19 10:11S 20°33' E 117°23'0 0.1
2018-Apr-19 09:11S 20°33' E 117°23'0 0.1
2018-Apr-19 08:17S 20°33' E 117°23'0 0.2
2018-Apr-19 07:53S 20°33' E 117°23'0 0.0
2018-Apr-19 07:29S 20°33' E 117°23'0 0.0
2018-Apr-19 06:35S 20°33' E 117°23'0 0.1
2018-Apr-19 06:23S 20°33' E 117°23'0 0.2
2018-Apr-19 05:53S 20°33' E 117°23'0 0.1
2018-Apr-19 04:35S 20°33' E 117°23'0 0.0
2018-Apr-19 04:23S 20°33' E 117°23'0 0.0
2018-Apr-19 03:11S 20°33' E 117°23'0 0.0
2018-Apr-19 02:59S 20°33' E 117°23'0 0.0
2018-Apr-18 23:53S 20°33' E 117°23'0 0.1
2018-Apr-18 21:05S 20°33' E 117°23'0 0.0
2018-Apr-18 19:23S 20°33' E 117°23'0 0.0
2018-Apr-18 18:53S 20°33' E 117°23'0 0.0
2018-Apr-18 18:29S 20°33' E 117°23'0 0.1
2018-Apr-18 17:29S 20°33' E 117°23'0 0.1
2018-Apr-18 16:59S 20°33' E 117°23'0 0.1
2018-Apr-18 16:29S 20°33' E 117°23'0 0.1
2018-Apr-18 14:59S 20°33' E 117°23'0 0.1
2018-Apr-18 13:53S 20°33' E 117°23'1 2.3
2018-Apr-18 13:29S 20°33' E 117°24'3 5.2
2018-Apr-18 13:00S 20°31' E 117°26'4 7.7
2018-Apr-18 12:28S 20°27' E 117°27'612.0
2018-Apr-18 11:59S 20°21' E 117°26'611.7
2018-Apr-18 11:27S 20°15' E 117°25'4 9.6
2018-Apr-18 11:00S 20°11' E 117°25'713.2
2018-Apr-18 10:28S 20°04' E 117°23'613.0
2018-Apr-18 09:59S 19°58' E 117°22'712.7
2018-Apr-18 09:28S 19°51' E 117°21'612.4
2018-Apr-18 08:59S 19°46' E 117°20'612.1
2018-Apr-18 08:29S 19°40' E 117°19'611.9
2018-Apr-18 07:59S 19°34' E 117°18'611.8
2018-Apr-18 07:28S 19°28' E 117°17'612.0
2018-Apr-18 07:00S 19°22' E 117°16'612.1
2018-Apr-18 06:30S 19°16' E 117°15'612.3
2018-Apr-18 06:00S 19°10' E 117°14'712.3
2018-Apr-18 05:28S 19°04' E 117°13'612.3
2018-Apr-18 05:00S 18°58' E 117°12'3612.9
2018-Apr-18 02:12S 18°22' E 117°08'513.1
2018-Apr-18 01:47S 18°17' E 117°07'412.7
2018-Apr-18 01:29S 18°13' E 117°07'612.5
2018-Apr-18 01:00S 18°07' E 117°06'712.4
2018-Apr-18 00:27S 18°00' E 117°05'612.6
2018-Apr-17 23:59S 17°54' E 117°03'2512.8
2018-Apr-17 22:02S 17°30' E 117°00'112.8
2018-Apr-17 21:55S 17°28' E 116°60'3512.9
2018-Apr-17 19:13S 16°54' E 116°55'312.8
2018-Apr-17 19:00S 16°51' E 116°54'1013.1
2018-Apr-17 18:15S 16°41' E 116°53'313.1
2018-Apr-17 18:00S 16°38' E 116°52'2612.7
2018-Apr-17 15:59S 16°13' E 116°48'33912.4
2018-Apr-16 12:42S 10°37' E 115°59'412.3
2018-Apr-16 12:21S 10°32' E 115°58'412.3
2018-Apr-16 12:00S 10°28' E 115°57'712.4
2018-Apr-16 11:28S 10°22' E 115°56'612.2
2018-Apr-16 10:58S 10°15' E 115°56'612.4
2018-Apr-16 10:29S 10°10' E 115°55'612.3
2018-Apr-16 10:00S 10°04' E 115°54'712.5
2018-Apr-16 09:25S 09°56' E 115°53'512.5
2018-Apr-16 09:00S 09°51' E 115°52'812.7
2018-Apr-16 08:22S 09°43' E 115°51'2613.3
2018-Apr-16 06:27S 09°18' E 115°47'612.9
2018-Apr-16 06:00S 09°12' E 115°47'612.8
2018-Apr-16 05:30S 09°06' E 115°46'713.3
2018-Apr-16 05:00S 08°59' E 115°46'714.1
2018-Apr-16 04:30S 08°52' E 115°45'711.6
2018-Apr-16 03:55S 08°45' E 115°45'511.1
2018-Apr-16 03:30S 08°41' E 115°46'714.4
2018-Apr-16 03:01S 08°34' E 115°48'714.5
2018-Apr-16 02:30S 08°27' E 115°51'814.4
2018-Apr-16 01:58S 08°20' E 115°54'714.2
2018-Apr-16 01:27S 08°13' E 115°57'613.8
2018-Apr-16 01:00S 08°08' E 115°59'714.2
2018-Apr-16 00:30S 08°01' E 116°02'1214.8
2018-Apr-15 23:42S 07°50' E 116°06'315.1
2018-Apr-15 23:29S 07°47' E 116°07'  

Dump ship's entire track history